sensor_id;sensor_type;location;lat;lon;timestamp;pressure;altitude;pressure_sealevel;temperature;humidity
38912;BME280;28444;48.056;14.408;2023-05-09T00:01:16;98088.78;;;9.48;65.31
38912;BME280;28444;48.056;14.408;2023-05-09T00:04:03;98081.13;;;9.47;66.55
38912;BME280;28444;48.056;14.408;2023-05-09T00:06:50;98083.16;;;9.54;66.29
38912;BME280;28444;48.056;14.408;2023-05-09T00:09:37;98086.25;;;9.58;65.95
38912;BME280;28444;48.056;14.408;2023-05-09T00:12:24;98075.66;;;9.47;64.88
38912;BME280;28444;48.056;14.408;2023-05-09T00:15:10;98088.25;;;9.50;66.60
38912;BME280;28444;48.056;14.408;2023-05-09T00:17:58;98085.50;;;9.42;65.35
38912;BME280;28444;48.056;14.408;2023-05-09T00:20:45;98079.66;;;9.38;65.84
38912;BME280;28444;48.056;14.408;2023-05-09T00:23:32;98081.47;;;9.43;66.24
38912;BME280;28444;48.056;14.408;2023-05-09T00:26:19;98073.06;;;9.26;65.67
38912;BME280;28444;48.056;14.408;2023-05-09T00:29:07;98086.75;;;9.33;67.01
38912;BME280;28444;48.056;14.408;2023-05-09T00:31:54;98077.47;;;9.36;66.50
38912;BME280;28444;48.056;14.408;2023-05-09T00:34:41;98071.69;;;9.48;65.51
38912;BME280;28444;48.056;14.408;2023-05-09T00:37:29;98071.84;;;9.42;65.62
38912;BME280;28444;48.056;14.408;2023-05-09T00:40:17;98069.78;;;9.20;65.25
38912;BME280;28444;48.056;14.408;2023-05-09T00:43:03;98063.56;;;9.11;66.36
38912;BME280;28444;48.056;14.408;2023-05-09T00:45:51;98061.38;;;9.10;65.18
38912;BME280;28444;48.056;14.408;2023-05-09T00:48:37;98060.44;;;9.07;66.47
38912;BME280;28444;48.056;14.408;2023-05-09T00:51:24;98064.91;;;8.89;66.17
38912;BME280;28444;48.056;14.408;2023-05-09T00:54:14;98059.66;;;8.91;67.03
38912;BME280;28444;48.056;14.408;2023-05-09T00:57:01;98055.16;;;9.02;66.81
38912;BME280;28444;48.056;14.408;2023-05-09T00:59:48;98044.75;;;9.00;65.76
38912;BME280;28444;48.056;14.408;2023-05-09T01:02:35;98046.94;;;8.94;65.99
38912;BME280;28444;48.056;14.408;2023-05-09T01:05:29;98048.38;;;8.87;65.98
38912;BME280;28444;48.056;14.408;2023-05-09T01:11:22;98037.94;;;8.78;66.32
38912;BME280;28444;48.056;14.408;2023-05-09T01:17:47;98035.66;;;8.90;65.90
38912;BME280;28444;48.056;14.408;2023-05-09T01:20:42;98033.97;;;8.79;65.79
38912;BME280;28444;48.056;14.408;2023-05-09T01:26:44;98023.72;;;8.64;65.51
38912;BME280;28444;48.056;14.408;2023-05-09T01:29:41;98027.13;;;8.57;66.27
38912;BME280;28444;48.056;14.408;2023-05-09T01:32:31;98028.59;;;8.58;67.28
38912;BME280;28444;48.056;14.408;2023-05-09T01:35:20;98028.53;;;8.51;67.43
38912;BME280;28444;48.056;14.408;2023-05-09T01:38:13;98027.16;;;8.65;67.29
38912;BME280;28444;48.056;14.408;2023-05-09T01:41:01;98027.44;;;8.46;67.17
38912;BME280;28444;48.056;14.408;2023-05-09T01:43:52;98022.38;;;8.50;66.61
38912;BME280;28444;48.056;14.408;2023-05-09T01:46:41;98028.34;;;8.49;67.25
38912;BME280;28444;48.056;14.408;2023-05-09T01:49:31;98031.66;;;8.55;67.80
38912;BME280;28444;48.056;14.408;2023-05-09T01:52:20;98022.25;;;8.63;66.80
38912;BME280;28444;48.056;14.408;2023-05-09T01:55:08;98028.34;;;8.49;66.06
38912;BME280;28444;48.056;14.408;2023-05-09T01:57:58;98018.75;;;8.55;67.11
38912;BME280;28444;48.056;14.408;2023-05-09T02:00:47;98015.38;;;8.70;66.88
38912;BME280;28444;48.056;14.408;2023-05-09T02:03:36;98011.38;;;8.71;67.18
38912;BME280;28444;48.056;14.408;2023-05-09T02:06:25;98011.56;;;8.73;65.94
38912;BME280;28444;48.056;14.408;2023-05-09T02:09:16;98011.56;;;8.73;66.03
38912;BME280;28444;48.056;14.408;2023-05-09T02:12:03;98010.81;;;8.65;67.43
38912;BME280;28444;48.056;14.408;2023-05-09T02:14:50;98017.03;;;8.73;66.61
38912;BME280;28444;48.056;14.408;2023-05-09T02:17:37;98019.13;;;8.59;66.98
38912;BME280;28444;48.056;14.408;2023-05-09T02:20:24;98020.94;;;8.57;66.84
38912;BME280;28444;48.056;14.408;2023-05-09T02:23:11;98024.94;;;8.56;67.43
38912;BME280;28444;48.056;14.408;2023-05-09T02:25:59;98027.88;;;8.37;67.28
38912;BME280;28444;48.056;14.408;2023-05-09T02:28:47;98017.94;;;8.39;68.04
38912;BME280;28444;48.056;14.408;2023-05-09T02:31:36;98026.06;;;8.32;67.80
38912;BME280;28444;48.056;14.408;2023-05-09T02:34:25;98021.31;;;8.32;68.10
38912;BME280;28444;48.056;14.408;2023-05-09T02:37:13;98020.00;;;8.26;67.92
38912;BME280;28444;48.056;14.408;2023-05-09T02:40:01;98022.06;;;8.33;68.05
38912;BME280;28444;48.056;14.408;2023-05-09T02:42:49;98018.47;;;8.38;68.16
38912;BME280;28444;48.056;14.408;2023-05-09T02:45:36;98025.84;;;8.30;67.90
38912;BME280;28444;48.056;14.408;2023-05-09T02:48:23;98023.53;;;8.13;68.11
38912;BME280;28444;48.056;14.408;2023-05-09T02:51:10;98023.69;;;8.07;69.18
38912;BME280;28444;48.056;14.408;2023-05-09T02:53:57;98024.81;;;8.12;68.86
38912;BME280;28444;48.056;14.408;2023-05-09T02:56:43;98022.63;;;8.10;68.81
38912;BME280;28444;48.056;14.408;2023-05-09T02:59:31;98016.03;;;8.06;68.33
38912;BME280;28444;48.056;14.408;2023-05-09T03:02:18;98019.53;;;8.06;69.24
38912;BME280;28444;48.056;14.408;2023-05-09T03:05:06;98016.38;;;8.02;68.35
38912;BME280;28444;48.056;14.408;2023-05-09T03:07:53;98015.47;;;8.00;69.10
38912;BME280;28444;48.056;14.408;2023-05-09T03:10:40;98016.59;;;7.83;68.57
38912;BME280;28444;48.056;14.408;2023-05-09T03:13:27;98016.00;;;7.98;69.52
38912;BME280;28444;48.056;14.408;2023-05-09T03:16:16;98019.31;;;8.04;68.98
38912;BME280;28444;48.056;14.408;2023-05-09T03:19:04;98008.75;;;8.01;68.87
38912;BME280;28444;48.056;14.408;2023-05-09T03:21:51;98007.97;;;7.92;68.49
38912;BME280;28444;48.056;14.408;2023-05-09T03:24:37;98006.91;;;7.95;68.41
38912;BME280;28444;48.056;14.408;2023-05-09T03:27:24;98006.16;;;7.95;68.69
38912;BME280;28444;48.056;14.408;2023-05-09T03:30:12;98002.97;;;7.83;68.85
38912;BME280;28444;48.056;14.408;2023-05-09T03:32:59;98002.41;;;7.77;68.95
38912;BME280;28444;48.056;14.408;2023-05-09T03:35:46;98001.94;;;7.86;68.87
38912;BME280;28444;48.056;14.408;2023-05-09T03:38:33;97996.16;;;7.69;69.00
38912;BME280;28444;48.056;14.408;2023-05-09T03:41:20;97998.22;;;7.76;68.96
38912;BME280;28444;48.056;14.408;2023-05-09T03:44:06;97998.13;;;7.89;68.20
38912;BME280;28444;48.056;14.408;2023-05-09T03:46:53;97995.59;;;7.91;68.62
38912;BME280;28444;48.056;14.408;2023-05-09T03:49:40;98002.81;;;7.81;69.22
38912;BME280;28444;48.056;14.408;2023-05-09T03:52:28;98002.31;;;7.69;69.00
38912;BME280;28444;48.056;14.408;2023-05-09T03:55:15;98013.31;;;7.77;68.16
38912;BME280;28444;48.056;14.408;2023-05-09T03:58:02;98010.50;;;7.69;68.83
38912;BME280;28444;48.056;14.408;2023-05-09T04:00:49;98013.34;;;7.64;68.27
38912;BME280;28444;48.056;14.408;2023-05-09T04:03:36;98019.19;;;7.68;68.85
38912;BME280;28444;48.056;14.408;2023-05-09T04:06:24;98020.53;;;7.75;68.71
38912;BME280;28444;48.056;14.408;2023-05-09T04:09:11;98023.97;;;7.75;70.10
38912;BME280;28444;48.056;14.408;2023-05-09T04:11:57;98024.44;;;7.66;69.02
38912;BME280;28444;48.056;14.408;2023-05-09T04:14:44;98018.81;;;7.64;70.57
38912;BME280;28444;48.056;14.408;2023-05-09T04:17:34;98022.19;;;7.78;69.83
38912;BME280;28444;48.056;14.408;2023-05-09T04:20:21;98021.84;;;7.60;69.30
38912;BME280;28444;48.056;14.408;2023-05-09T04:23:08;98011.38;;;7.64;70.42
38912;BME280;28444;48.056;14.408;2023-05-09T04:25:55;98020.13;;;7.70;69.50
38912;BME280;28444;48.056;14.408;2023-05-09T04:28:42;98015.88;;;7.83;70.92
38912;BME280;28444;48.056;14.408;2023-05-09T04:31:32;98018.19;;;7.79;70.10
38912;BME280;28444;48.056;14.408;2023-05-09T04:34:19;98015.75;;;7.67;70.24
38912;BME280;28444;48.056;14.408;2023-05-09T04:37:06;98010.03;;;7.79;69.51
38912;BME280;28444;48.056;14.408;2023-05-09T04:39:53;98011.69;;;7.82;69.31
38912;BME280;28444;48.056;14.408;2023-05-09T04:42:40;98011.09;;;7.76;69.75
38912;BME280;28444;48.056;14.408;2023-05-09T04:45:27;98008.25;;;7.60;69.98
38912;BME280;28444;48.056;14.408;2023-05-09T04:48:14;98015.69;;;7.60;71.29
38912;BME280;28444;48.056;14.408;2023-05-09T04:51:01;98004.84;;;7.46;70.20
38912;BME280;28444;48.056;14.408;2023-05-09T04:53:48;98009.56;;;7.46;72.02
38912;BME280;28444;48.056;14.408;2023-05-09T04:56:35;98009.78;;;7.48;71.44
38912;BME280;28444;48.056;14.408;2023-05-09T04:59:22;98020.06;;;7.42;71.41
38912;BME280;28444;48.056;14.408;2023-05-09T05:02:09;98015.00;;;7.46;71.59
38912;BME280;28444;48.056;14.408;2023-05-09T05:04:56;98019.84;;;7.40;72.12
38912;BME280;28444;48.056;14.408;2023-05-09T05:08:03;98020.41;;;7.59;70.84
38912;BME280;28444;48.056;14.408;2023-05-09T05:10:50;98015.63;;;7.52;71.61
38912;BME280;28444;48.056;14.408;2023-05-09T05:13:37;98019.06;;;7.53;71.00
38912;BME280;28444;48.056;14.408;2023-05-09T05:16:23;98022.13;;;7.70;70.99
38912;BME280;28444;48.056;14.408;2023-05-09T05:19:10;98020.38;;;7.80;70.91
38912;BME280;28444;48.056;14.408;2023-05-09T05:21:57;98027.81;;;7.80;71.57
38912;BME280;28444;48.056;14.408;2023-05-09T05:24:44;98033.34;;;7.87;71.36
38912;BME280;28444;48.056;14.408;2023-05-09T05:27:31;98021.91;;;8.10;70.10
38912;BME280;28444;48.056;14.408;2023-05-09T05:30:18;98023.69;;;8.07;71.10
38912;BME280;28444;48.056;14.408;2023-05-09T05:33:06;98024.91;;;8.27;69.91
38912;BME280;28444;48.056;14.408;2023-05-09T05:35:53;98017.78;;;8.45;69.70
38912;BME280;28444;48.056;14.408;2023-05-09T05:38:40;98016.91;;;8.50;68.98
38912;BME280;28444;48.056;14.408;2023-05-09T05:41:27;98014.53;;;8.47;68.53
38912;BME280;28444;48.056;14.408;2023-05-09T05:44:14;98015.34;;;8.62;69.56
38912;BME280;28444;48.056;14.408;2023-05-09T05:47:01;98022.16;;;8.48;69.81
38912;BME280;28444;48.056;14.408;2023-05-09T05:49:48;98024.59;;;8.59;69.05
38912;BME280;28444;48.056;14.408;2023-05-09T05:52:35;98016.56;;;8.54;69.08
38912;BME280;28444;48.056;14.408;2023-05-09T05:55:21;98020.44;;;8.66;69.31
38912;BME280;28444;48.056;14.408;2023-05-09T05:58:08;98020.66;;;8.68;68.11
38912;BME280;28444;48.056;14.408;2023-05-09T06:00:55;98021.91;;;8.67;69.04
38912;BME280;28444;48.056;14.408;2023-05-09T06:03:42;98012.16;;;8.79;69.08
38912;BME280;28444;48.056;14.408;2023-05-09T06:06:29;98014.38;;;8.96;69.88
38912;BME280;28444;48.056;14.408;2023-05-09T06:09:16;98012.59;;;9.06;69.29
38912;BME280;28444;48.056;14.408;2023-05-09T06:12:03;97995.91;;;9.18;68.86
38912;BME280;28444;48.056;14.408;2023-05-09T06:14:50;97990.09;;;9.29;67.98
38912;BME280;28444;48.056;14.408;2023-05-09T06:17:37;97994.69;;;9.34;68.16
38912;BME280;28444;48.056;14.408;2023-05-09T06:20:24;97997.78;;;9.38;67.35
38912;BME280;28444;48.056;14.408;2023-05-09T06:23:11;97989.03;;;9.47;68.06
38912;BME280;28444;48.056;14.408;2023-05-09T06:25:58;97992.69;;;9.57;67.78
38912;BME280;28444;48.056;14.408;2023-05-09T06:28:45;97981.25;;;9.67;67.66
38912;BME280;28444;48.056;14.408;2023-05-09T06:31:32;97991.81;;;9.70;68.10
38912;BME280;28444;48.056;14.408;2023-05-09T06:34:24;97981.81;;;9.80;66.72
38912;BME280;28444;48.056;14.408;2023-05-09T06:37:11;97983.44;;;9.99;67.57
38912;BME280;28444;48.056;14.408;2023-05-09T06:39:57;97971.19;;;10.07;66.75
38912;BME280;28444;48.056;14.408;2023-05-09T06:42:44;97965.94;;;10.09;66.46
38912;BME280;28444;48.056;14.408;2023-05-09T06:45:31;97963.00;;;10.15;65.69
38912;BME280;28444;48.056;14.408;2023-05-09T06:48:18;97968.81;;;10.11;67.37
38912;BME280;28444;48.056;14.408;2023-05-09T06:51:05;97956.44;;;10.10;66.56
38912;BME280;28444;48.056;14.408;2023-05-09T06:53:52;97966.44;;;10.23;66.72
38912;BME280;28444;48.056;14.408;2023-05-09T06:56:39;97957.66;;;10.48;67.18
38912;BME280;28444;48.056;14.408;2023-05-09T06:59:26;97952.72;;;10.54;67.45
38912;BME280;28444;48.056;14.408;2023-05-09T07:02:13;97950.31;;;10.58;66.14
38912;BME280;28444;48.056;14.408;2023-05-09T07:05:00;97950.66;;;10.70;65.84
38912;BME280;28444;48.056;14.408;2023-05-09T07:07:47;97948.41;;;10.83;66.83
38912;BME280;28444;48.056;14.408;2023-05-09T07:10:34;97950.06;;;10.79;65.94
38912;BME280;28444;48.056;14.408;2023-05-09T07:13:21;97952.19;;;10.88;66.72
38912;BME280;28444;48.056;14.408;2023-05-09T07:16:08;97949.41;;;10.96;66.40
38912;BME280;28444;48.056;14.408;2023-05-09T07:18:55;97951.56;;;11.05;67.00
38912;BME280;28444;48.056;14.408;2023-05-09T07:21:42;97959.00;;;11.12;66.27
38912;BME280;28444;48.056;14.408;2023-05-09T07:24:30;97958.56;;;11.23;66.06
38912;BME280;28444;48.056;14.408;2023-05-09T07:27:16;97950.50;;;11.33;66.05
38912;BME280;28444;48.056;14.408;2023-05-09T07:30:04;97945.44;;;11.47;65.56
38912;BME280;28444;48.056;14.408;2023-05-09T07:32:52;97947.84;;;11.43;65.30
38912;BME280;28444;48.056;14.408;2023-05-09T07:35:39;97942.00;;;11.46;64.42
38912;BME280;28444;48.056;14.408;2023-05-09T07:38:26;97932.78;;;11.59;66.05
38912;BME280;28444;48.056;14.408;2023-05-09T07:41:13;97927.63;;;11.63;65.16
38912;BME280;28444;48.056;14.408;2023-05-09T07:44:00;97921.34;;;11.70;65.02
38912;BME280;28444;48.056;14.408;2023-05-09T07:46:47;97930.56;;;11.82;64.57
38912;BME280;28444;48.056;14.408;2023-05-09T07:49:34;97919.16;;;11.94;64.63
38912;BME280;28444;48.056;14.408;2023-05-09T07:52:21;97917.09;;;12.02;65.30
38912;BME280;28444;48.056;14.408;2023-05-09T07:55:08;97908.84;;;12.19;65.11
38912;BME280;28444;48.056;14.408;2023-05-09T07:57:55;97909.31;;;12.25;65.53
38912;BME280;28444;48.056;14.408;2023-05-09T08:00:42;97905.28;;;12.26;64.87
38912;BME280;28444;48.056;14.408;2023-05-09T08:03:29;97902.56;;;12.09;64.50
38912;BME280;28444;48.056;14.408;2023-05-09T08:06:16;97903.94;;;12.18;64.77
38912;BME280;28444;48.056;14.408;2023-05-09T08:09:03;97893.41;;;12.41;65.82
38912;BME280;28444;48.056;14.408;2023-05-09T08:11:50;97902.28;;;12.49;63.31
38912;BME280;28444;48.056;14.408;2023-05-09T08:14:37;97898.25;;;12.50;65.30
38912;BME280;28444;48.056;14.408;2023-05-09T08:17:24;97889.50;;;12.62;63.55
38912;BME280;28444;48.056;14.408;2023-05-09T08:20:11;97885.38;;;12.70;63.67
38912;BME280;28444;48.056;14.408;2023-05-09T08:22:58;97887.69;;;12.74;62.91
38912;BME280;28444;48.056;14.408;2023-05-09T08:25:45;97878.41;;;12.87;63.49
38912;BME280;28444;48.056;14.408;2023-05-09T08:28:32;97879.72;;;12.95;64.16
38912;BME280;28444;48.056;14.408;2023-05-09T08:31:19;97885.56;;;13.09;62.63
38912;BME280;28444;48.056;14.408;2023-05-09T08:34:06;97880.97;;;13.21;63.22
38912;BME280;28444;48.056;14.408;2023-05-09T08:36:53;97885.72;;;13.11;62.78
38912;BME280;28444;48.056;14.408;2023-05-09T08:39:40;97872.00;;;13.11;64.04
38912;BME280;28444;48.056;14.408;2023-05-09T08:42:28;97863.66;;;13.19;65.16
38912;BME280;28444;48.056;14.408;2023-05-09T08:45:24;97862.94;;;13.18;65.42
38912;BME280;28444;48.056;14.408;2023-05-09T08:48:14;97865.03;;;13.37;64.08
38912;BME280;28444;48.056;14.408;2023-05-09T08:51:03;97865.50;;;13.53;63.56
38912;BME280;28444;48.056;14.408;2023-05-09T08:53:50;97865.66;;;13.55;64.46
38912;BME280;28444;48.056;14.408;2023-05-09T08:56:38;97852.66;;;13.65;63.86
38912;BME280;28444;48.056;14.408;2023-05-09T08:59:26;97855.53;;;13.67;63.48
38912;BME280;28444;48.056;14.408;2023-05-09T09:02:14;97841.41;;;13.81;64.23
38912;BME280;28444;48.056;14.408;2023-05-09T09:05:01;97843.84;;;13.96;62.72
38912;BME280;28444;48.056;14.408;2023-05-09T09:07:48;97845.75;;;14.03;62.55
38912;BME280;28444;48.056;14.408;2023-05-09T09:10:39;97843.16;;;14.05;62.46
38912;BME280;28444;48.056;14.408;2023-05-09T09:13:27;97838.38;;;14.06;61.14
38912;BME280;28444;48.056;14.408;2023-05-09T09:16:20;97833.00;;;14.17;63.75
38912;BME280;28444;48.056;14.408;2023-05-09T09:19:16;97831.97;;;14.23;62.64
38912;BME280;28444;48.056;14.408;2023-05-09T09:22:04;97832.13;;;14.34;62.46
38912;BME280;28444;48.056;14.408;2023-05-09T09:24:51;97828.47;;;14.51;63.53
38912;BME280;28444;48.056;14.408;2023-05-09T09:27:38;97822.63;;;14.66;63.64
38912;BME280;28444;48.056;14.408;2023-05-09T09:30:27;97820.91;;;14.71;63.10
38912;BME280;28444;48.056;14.408;2023-05-09T09:33:19;97815.34;;;14.81;62.17
38912;BME280;28444;48.056;14.408;2023-05-09T09:36:07;97810.41;;;14.89;62.48
38912;BME280;28444;48.056;14.408;2023-05-09T09:39:02;97811.56;;;14.86;61.22
38912;BME280;28444;48.056;14.408;2023-05-09T09:41:52;97806.06;;;14.86;61.29
38912;BME280;28444;48.056;14.408;2023-05-09T09:44:39;97801.53;;;14.90;61.54
38912;BME280;28444;48.056;14.408;2023-05-09T09:47:32;97804.25;;;15.00;63.11
38912;BME280;28444;48.056;14.408;2023-05-09T09:50:19;97797.09;;;15.07;61.37
38912;BME280;28444;48.056;14.408;2023-05-09T09:53:09;97787.34;;;14.94;61.27
38912;BME280;28444;48.056;14.408;2023-05-09T09:55:56;97788.59;;;15.03;62.10
38912;BME280;28444;48.056;14.408;2023-05-09T09:58:43;97785.72;;;15.01;61.15
38912;BME280;28444;48.056;14.408;2023-05-09T10:01:30;97782.16;;;15.10;61.35
38912;BME280;28444;48.056;14.408;2023-05-09T10:04:17;97772.09;;;15.24;62.47
38912;BME280;28444;48.056;14.408;2023-05-09T10:07:05;97768.41;;;15.31;60.71
38912;BME280;28444;48.056;14.408;2023-05-09T10:09:52;97766.06;;;15.37;63.43
38912;BME280;28444;48.056;14.408;2023-05-09T10:12:41;97763.09;;;15.45;62.47
38912;BME280;28444;48.056;14.408;2023-05-09T10:15:30;97763.81;;;15.46;62.76
38912;BME280;28444;48.056;14.408;2023-05-09T10:18:31;97760.03;;;15.51;62.08
38912;BME280;28444;48.056;14.408;2023-05-09T10:21:19;97752.84;;;15.57;60.40
38912;BME280;28444;48.056;14.408;2023-05-09T10:24:07;97748.41;;;15.74;60.59
38912;BME280;28444;48.056;14.408;2023-05-09T10:27:02;97742.41;;;15.66;62.33
38912;BME280;28444;48.056;14.408;2023-05-09T10:30:01;97742.53;;;15.79;62.34
38912;BME280;28444;48.056;14.408;2023-05-09T10:33:08;97740.56;;;15.92;63.20
38912;BME280;28444;48.056;14.408;2023-05-09T10:35:57;97742.97;;;15.97;62.20
38912;BME280;28444;48.056;14.408;2023-05-09T10:38:47;97736.25;;;16.00;59.82
38912;BME280;28444;48.056;14.408;2023-05-09T10:41:35;97730.53;;;16.08;59.36
38912;BME280;28444;48.056;14.408;2023-05-09T10:44:23;97726.72;;;16.13;59.92
38912;BME280;28444;48.056;14.408;2023-05-09T10:47:11;97717.13;;;16.14;60.26
38912;BME280;28444;48.056;14.408;2023-05-09T10:49:59;97708.03;;;16.23;59.30
38912;BME280;28444;48.056;14.408;2023-05-09T10:55:57;97706.94;;;16.28;59.65
38912;BME280;28444;48.056;14.408;2023-05-09T10:58:47;97702.63;;;16.37;60.64
38912;BME280;28444;48.056;14.408;2023-05-09T11:01:36;97693.50;;;16.46;60.69
38912;BME280;28444;48.056;14.408;2023-05-09T11:04:24;97692.44;;;16.51;60.47
38912;BME280;28444;48.056;14.408;2023-05-09T11:07:25;97678.75;;;16.53;60.67
38912;BME280;28444;48.056;14.408;2023-05-09T11:10:16;97674.91;;;16.58;59.95
38912;BME280;28444;48.056;14.408;2023-05-09T11:13:03;97664.34;;;16.67;59.96
38912;BME280;28444;48.056;14.408;2023-05-09T11:16:09;97663.75;;;16.68;59.90
38912;BME280;28444;48.056;14.408;2023-05-09T11:18:57;97653.66;;;16.84;59.36
38912;BME280;28444;48.056;14.408;2023-05-09T11:21:59;97654.03;;;16.79;60.67
38912;BME280;28444;48.056;14.408;2023-05-09T11:24:58;97650.66;;;16.80;58.81
38912;BME280;28444;48.056;14.408;2023-05-09T11:27:49;97648.88;;;16.85;59.16
38912;BME280;28444;48.056;14.408;2023-05-09T11:30:41;97638.28;;;16.93;60.38
38912;BME280;28444;48.056;14.408;2023-05-09T11:33:28;97633.59;;;16.96;60.10
38912;BME280;28444;48.056;14.408;2023-05-09T11:36:28;97632.59;;;17.03;59.76
38912;BME280;28444;48.056;14.408;2023-05-09T11:39:23;97625.59;;;17.14;59.48
38912;BME280;28444;48.056;14.408;2023-05-09T11:42:10;97625.00;;;17.15;58.79
38912;BME280;28444;48.056;14.408;2023-05-09T11:44:58;97613.94;;;17.15;59.62
38912;BME280;28444;48.056;14.408;2023-05-09T11:47:46;97609.25;;;17.18;58.46
38912;BME280;28444;48.056;14.408;2023-05-09T11:50:33;97603.94;;;17.22;56.91
38912;BME280;28444;48.056;14.408;2023-05-09T11:53:20;97610.03;;;17.32;57.46
38912;BME280;28444;48.056;14.408;2023-05-09T11:56:07;97597.88;;;17.37;58.03
38912;BME280;28444;48.056;14.408;2023-05-09T11:58:54;97598.59;;;17.38;56.85
38912;BME280;28444;48.056;14.408;2023-05-09T12:01:41;97589.41;;;17.47;57.13
38912;BME280;28444;48.056;14.408;2023-05-09T12:04:32;97576.84;;;17.58;57.55
38912;BME280;28444;48.056;14.408;2023-05-09T12:07:19;97579.38;;;17.53;57.05
38912;BME280;28444;48.056;14.408;2023-05-09T12:10:09;97580.63;;;17.64;56.39
38912;BME280;28444;48.056;14.408;2023-05-09T12:12:56;97572.25;;;17.62;57.42
38912;BME280;28444;48.056;14.408;2023-05-09T12:15:43;97566.00;;;17.62;57.06
38912;BME280;28444;48.056;14.408;2023-05-09T12:18:30;97564.56;;;17.61;55.60
38912;BME280;28444;48.056;14.408;2023-05-09T12:21:18;97551.47;;;17.75;57.05
38912;BME280;28444;48.056;14.408;2023-05-09T12:24:05;97554.59;;;17.81;58.03
38912;BME280;28444;48.056;14.408;2023-05-09T12:26:54;97546.50;;;17.85;56.50
38912;BME280;28444;48.056;14.408;2023-05-09T12:29:41;97540.78;;;17.81;55.80
38912;BME280;28444;48.056;14.408;2023-05-09T12:32:31;97535.84;;;17.93;55.74
38912;BME280;28444;48.056;14.408;2023-05-09T12:35:20;97528.91;;;17.92;56.44
38912;BME280;28444;48.056;14.408;2023-05-09T12:38:13;97529.59;;;17.93;55.93
38912;BME280;28444;48.056;14.408;2023-05-09T12:41:03;97522.66;;;18.06;56.38
38912;BME280;28444;48.056;14.408;2023-05-09T12:43:51;97518.75;;;18.11;55.08
38912;BME280;28444;48.056;14.408;2023-05-09T12:46:38;97511.88;;;18.12;54.89
38912;BME280;28444;48.056;14.408;2023-05-09T12:49:25;97510.84;;;18.19;55.27
38912;BME280;28444;48.056;14.408;2023-05-09T12:52:17;97502.16;;;18.24;56.29
38912;BME280;28444;48.056;14.408;2023-05-09T12:55:08;97509.31;;;18.29;56.28
38912;BME280;28444;48.056;14.408;2023-05-09T12:58:00;97497.44;;;18.27;57.07
38912;BME280;28444;48.056;14.408;2023-05-09T13:00:48;97488.91;;;18.37;55.36
38912;BME280;28444;48.056;14.408;2023-05-09T13:03:34;97493.38;;;18.44;55.36
38912;BME280;28444;48.056;14.408;2023-05-09T13:06:24;97489.00;;;18.39;55.80
38912;BME280;28444;48.056;14.408;2023-05-09T13:09:11;97474.53;;;18.40;55.82
38912;BME280;28444;48.056;14.408;2023-05-09T13:11:58;97479.03;;;18.47;55.45
38912;BME280;28444;48.056;14.408;2023-05-09T13:14:45;97468.97;;;18.54;56.02
38912;BME280;28444;48.056;14.408;2023-05-09T13:17:32;97469.31;;;18.46;56.41
38912;BME280;28444;48.056;14.408;2023-05-09T13:20:20;97454.31;;;18.51;54.86
38912;BME280;28444;48.056;14.408;2023-05-09T13:23:07;97469.31;;;18.46;55.52
38912;BME280;28444;48.056;14.408;2023-05-09T13:25:53;97455.28;;;18.42;54.11
38912;BME280;28444;48.056;14.408;2023-05-09T13:28:40;97439.84;;;18.53;55.19
38912;BME280;28444;48.056;14.408;2023-05-09T13:31:27;97437.09;;;18.53;54.87
38912;BME280;28444;48.056;14.408;2023-05-09T13:34:14;97438.00;;;18.58;55.07
38912;BME280;28444;48.056;14.408;2023-05-09T13:37:01;97428.56;;;18.63;54.12
38912;BME280;28444;48.056;14.408;2023-05-09T13:39:48;97424.63;;;18.68;55.44
38912;BME280;28444;48.056;14.408;2023-05-09T13:42:35;97419.09;;;18.68;54.89
38912;BME280;28444;48.056;14.408;2023-05-09T13:45:22;97416.13;;;18.64;53.94
38912;BME280;28444;48.056;14.408;2023-05-09T13:48:09;97404.16;;;18.59;55.00
38912;BME280;28444;48.056;14.408;2023-05-09T13:50:57;97407.13;;;18.63;54.56
38912;BME280;28444;48.056;14.408;2023-05-09T13:53:45;97399.22;;;18.58;54.43
38912;BME280;28444;48.056;14.408;2023-05-09T13:56:32;97395.19;;;18.74;54.50
38912;BME280;28444;48.056;14.408;2023-05-09T13:59:19;97391.22;;;18.64;55.90
38912;BME280;28444;48.056;14.408;2023-05-09T14:02:07;97390.06;;;18.69;55.67
38912;BME280;28444;48.056;14.408;2023-05-09T14:04:54;97383.41;;;18.74;54.20
38912;BME280;28444;48.056;14.408;2023-05-09T14:07:41;97375.81;;;18.90;53.28
38912;BME280;28444;48.056;14.408;2023-05-09T14:10:28;97369.03;;;18.93;53.64
38912;BME280;28444;48.056;14.408;2023-05-09T14:13:15;97370.91;;;18.89;53.75
38912;BME280;28444;48.056;14.408;2023-05-09T14:16:02;97365.25;;;18.87;53.96
38912;BME280;28444;48.056;14.408;2023-05-09T14:18:50;97364.19;;;18.78;53.03
38912;BME280;28444;48.056;14.408;2023-05-09T14:21:37;97360.72;;;18.78;54.78
38912;BME280;28444;48.056;14.408;2023-05-09T14:24:25;97354.81;;;18.85;54.00
38912;BME280;28444;48.056;14.408;2023-05-09T14:27:12;97358.47;;;18.90;53.75
38912;BME280;28444;48.056;14.408;2023-05-09T14:29:58;97346.59;;;18.87;53.58
38912;BME280;28444;48.056;14.408;2023-05-09T14:32:45;97351.59;;;18.91;54.72
38912;BME280;28444;48.056;14.408;2023-05-09T14:35:32;97345.00;;;18.82;52.88
38912;BME280;28444;48.056;14.408;2023-05-09T14:38:20;97333.13;;;18.95;52.25
38912;BME280;28444;48.056;14.408;2023-05-09T14:41:07;97338.28;;;18.87;53.38
38912;BME280;28444;48.056;14.408;2023-05-09T14:43:54;97333.19;;;18.82;52.70
38912;BME280;28444;48.056;14.408;2023-05-09T14:46:41;97331.22;;;18.84;53.92
38912;BME280;28444;48.056;14.408;2023-05-09T14:49:28;97317.47;;;18.86;52.86
38912;BME280;28444;48.056;14.408;2023-05-09T14:52:15;97306.94;;;18.83;53.41
38912;BME280;28444;48.056;14.408;2023-05-09T14:55:03;97308.88;;;18.80;53.66
38912;BME280;28444;48.056;14.408;2023-05-09T14:57:52;97306.75;;;18.79;52.57